Time;durP1;ratioP1;P1;durP2;ratioP2;P2;SDS_P1;SDS_P2;PMS_P1;PMS_P2;Temp;Humidity;BMP_temperature;BMP_pressure;BME280_temperature;BME280_humidity;BME280_pressure;Samples;Min_cycle;Max_cycle;Signal;HPM_P1;HPM_P2
2022/08/08 00:01:48;;;;;;;7.38;4.10;;;15.70;99.90;;;;;;5013528;28;20409;-76
2022/08/08 00:04:30;;;;;;;6.95;4.50;;;15.70;99.90;;;;;;5033341;28;20489;-76
2022/08/08 00:07:23;;;;;;;7.57;4.57;;;15.70;99.90;;;;;;5002755;28;20507;-76
2022/08/08 00:10:16;;;;;;;5.85;4.60;;;15.60;99.90;;;;;;5013418;28;20037;-76
2022/08/08 00:13:00;;;;;;;7.50;4.65;;;15.60;99.90;;;;;;5014893;28;20072;-76
2022/08/08 00:15:35;;;;;;;5.60;4.72;;;15.60;99.90;;;;;;5020004;28;20067;-76
2022/08/08 00:18:27;;;;;;;6.53;4.73;;;15.60;99.90;;;;;;5047813;28;20051;-76
2022/08/08 00:20:59;;;;;;;6.63;4.70;;;15.60;99.90;;;;;;5026926;28;20354;-76
2022/08/08 00:23:53;;;;;;;6.28;4.95;;;15.60;99.90;;;;;;5009021;28;20056;-76
2022/08/08 00:26:48;;;;;;;7.03;4.35;;;15.60;99.90;;;;;;5028265;28;20041;-76
2022/08/08 00:29:37;;;;;;;6.80;5.30;;;15.50;99.90;;;;;;5004331;28;20073;-76
2022/08/08 00:32:19;;;;;;;7.85;4.93;;;15.50;99.90;;;;;;5024988;28;20034;-75
2022/08/08 00:35:11;;;;;;;7.03;4.90;;;15.40;99.90;;;;;;5030106;28;20044;-76
2022/08/08 00:38:00;;;;;;;8.13;5.13;;;15.40;99.90;;;;;;5010278;28;20073;-76
2022/08/08 00:40:28;;;;;;;6.78;4.60;;;15.30;99.90;;;;;;5019215;28;20046;-76
2022/08/08 00:43:04;;;;;;;6.75;5.15;;;15.20;99.90;;;;;;5025397;28;20054;-76
2022/08/08 00:45:41;;;;;;;5.88;4.55;;;15.20;99.90;;;;;;5017885;28;20050;-76
2022/08/08 00:48:25;;;;;;;6.38;4.60;;;15.10;99.90;;;;;;5030517;28;20034;-76
2022/08/08 00:51:12;;;;;;;6.57;4.25;;;15.20;99.90;;;;;;5019681;28;20516;-84
2022/08/08 00:54:18;;;;;;;5.63;4.00;;;15.20;99.90;;;;;;5018716;28;20398;-84
2022/08/08 00:57:34;;;;;;;5.72;4.53;;;15.10;99.90;;;;;;5015588;28;20060;-84
2022/08/08 01:00:13;;;;;;;7.45;4.57;;;15.10;99.90;;;;;;5029549;28;20060;-84
2022/08/08 01:03:09;;;;;;;7.18;4.72;;;15.00;99.90;;;;;;5034578;28;20401;-84
2022/08/08 01:05:44;;;;;;;6.63;4.63;;;15.00;99.90;;;;;;5030207;28;20105;-83
2022/08/08 01:08:35;;;;;;;6.40;4.60;;;15.00;99.90;;;;;;5036391;28;20037;-84
2022/08/08 01:11:41;;;;;;;6.47;4.47;;;15.00;99.90;;;;;;5035829;28;20037;-85
2022/08/08 01:14:25;;;;;;;6.45;4.70;;;15.00;99.90;;;;;;5037856;28;20048;-84
2022/08/08 01:17:25;;;;;;;6.15;4.13;;;15.00;99.90;;;;;;5034730;28;20060;-83
2022/08/08 01:20:29;;;;;;;7.65;4.57;;;15.00;99.90;;;;;;5045590;28;20053;-83
2022/08/08 01:23:28;;;;;;;8.05;4.85;;;14.90;99.90;;;;;;5032974;28;20050;-84
2022/08/08 01:26:09;;;;;;;7.07;4.70;;;14.90;99.90;;;;;;5028017;28;20041;-84
2022/08/08 01:28:40;;;;;;;6.20;4.63;;;14.90;99.90;;;;;;5029876;28;20097;-84
2022/08/08 01:31:33;;;;;;;6.90;5.07;;;14.90;99.90;;;;;;5033948;28;20044;-85
2022/08/08 01:34:32;;;;;;;6.45;5.15;;;14.90;99.90;;;;;;5020936;28;20041;-84
2022/08/08 01:37:15;;;;;;;6.30;5.18;;;14.80;99.90;;;;;;5033278;28;20095;-84
2022/08/08 01:40:15;;;;;;;7.10;5.05;;;14.80;99.90;;;;;;5020719;28;20045;-85
2022/08/08 01:42:46;;;;;;;7.85;4.88;;;14.80;99.90;;;;;;5029431;28;20058;-84
2022/08/08 01:45:41;;;;;;;8.18;5.07;;;14.70;99.90;;;;;;5026418;28;20052;-85
2022/08/08 01:48:34;;;;;;;7.47;5.32;;;14.70;99.90;;;;;;5036234;28;20069;-85
2022/08/08 01:51:22;;;;;;;6.38;4.50;;;14.70;99.90;;;;;;5034533;28;20041;-84
2022/08/08 01:54:15;;;;;;;6.68;5.38;;;14.60;99.90;;;;;;5021240;28;20045;-85
2022/08/08 01:56:58;;;;;;;6.63;4.70;;;14.60;99.90;;;;;;5025402;28;20054;-84
2022/08/08 01:59:54;;;;;;;7.68;5.50;;;14.60;99.90;;;;;;5034532;28;20041;-85
2022/08/08 02:02:39;;;;;;;6.18;5.10;;;14.60;99.90;;;;;;5039543;28;20060;-84
2022/08/08 02:05:39;;;;;;;7.55;4.95;;;14.50;99.90;;;;;;5039471;28;20041;-83
2022/08/08 02:08:27;;;;;;;6.15;5.15;;;14.50;99.90;;;;;;5040970;28;20038;-84
2022/08/08 02:11:24;;;;;;;8.98;5.40;;;14.40;99.90;;;;;;5031584;28;20037;-84
2022/08/08 02:14:00;;;;;;;9.13;5.43;;;14.40;99.90;;;;;;5039419;28;20073;-83
2022/08/08 02:16:38;;;;;;;5.70;4.35;;;14.40;99.90;;;;;;5019174;28;20497;-84
2022/08/08 02:19:23;;;;;;;6.95;4.85;;;14.30;99.90;;;;;;5020969;28;20547;-84
2022/08/08 02:25:11;;;;;;;6.43;4.68;;;14.20;99.90;;;;;;5054052;28;20049;-84
2022/08/08 02:27:46;;;;;;;9.70;4.65;;;14.20;99.90;;;;;;5003120;28;20046;-84
2022/08/08 02:30:33;;;;;;;5.00;4.32;;;14.20;99.90;;;;;;5026636;28;20156;-84
2022/08/08 02:33:18;;;;;;;5.60;4.45;;;14.20;99.90;;;;;;5032814;28;20037;-85
2022/08/08 02:35:53;;;;;;;8.07;5.32;;;14.20;99.90;;;;;;5029588;28;20048;-84
2022/08/08 02:38:22;;;;;;;6.03;4.80;;;14.20;99.90;;;;;;5034293;28;20040;-84
2022/08/08 02:41:06;;;;;;;4.85;4.35;;;14.20;99.90;;;;;;5036824;28;20508;-84
2022/08/08 02:43:44;;;;;;;5.50;4.47;;;14.20;99.90;;;;;;5042977;28;20106;-84
2022/08/08 02:46:28;;;;;;;5.95;4.65;;;14.10;99.90;;;;;;5050859;28;20041;-76
2022/08/08 02:49:00;;;;;;;6.53;4.95;;;14.10;99.90;;;;;;5027426;28;20045;-76
2022/08/08 02:52:09;;;;;;;6.78;4.78;;;14.10;99.90;;;;;;5029165;28;20064;-76
2022/08/08 02:54:36;;;;;;;6.75;5.00;;;14.10;99.90;;;;;;5031150;28;20038;-76
2022/08/08 02:57:48;;;;;;;6.43;5.15;;;14.10;99.90;;;;;;5029640;28;20033;-76
2022/08/08 03:00:28;;;;;;;6.85;4.45;;;14.10;99.90;;;;;;5029733;28;20133;-75
2022/08/08 03:03:25;;;;;;;7.45;5.00;;;14.00;99.90;;;;;;5030448;28;20133;-76
2022/08/08 03:06:15;;;;;;;6.35;4.85;;;14.00;99.90;;;;;;5028889;28;20033;-75
2022/08/08 03:09:20;;;;;;;6.93;4.40;;;13.90;99.90;;;;;;5016806;28;20389;-76
2022/08/08 03:12:23;;;;;;;6.03;4.90;;;13.90;99.90;;;;;;5029236;28;20053;-76
2022/08/08 03:15:10;;;;;;;6.88;5.20;;;13.90;99.90;;;;;;5001966;28;20046;-76
2022/08/08 03:17:36;;;;;;;6.25;5.00;;;13.90;99.90;;;;;;5029856;28;20052;-77
2022/08/08 03:22:27;;;;;;;7.22;5.63;;;13.90;99.90;;;;;;5022037;28;20041;-76
2022/08/08 03:24:53;;;;;;;6.88;5.43;;;13.90;99.90;;;;;;5031505;28;20512;-76
2022/08/08 03:27:34;;;;;;;8.32;5.28;;;13.90;99.90;;;;;;5014420;28;20250;-76
2022/08/08 03:30:08;;;;;;;7.05;5.80;;;13.90;99.90;;;;;;5005485;28;20088;-76
2022/08/08 03:35:21;;;;;;;7.25;5.82;;;13.80;99.90;;;;;;5041325;28;20120;-76
2022/08/08 03:37:47;;;;;;;7.25;5.47;;;13.80;99.90;;;;;;5022441;28;20040;-76
2022/08/08 03:40:14;;;;;;;6.40;5.32;;;13.80;99.90;;;;;;5000555;28;20048;-76
2022/08/08 03:42:41;;;;;;;7.00;5.70;;;13.70;99.90;;;;;;5032558;28;20111;-76
2022/08/08 03:45:18;;;;;;;7.20;5.95;;;13.80;99.90;;;;;;5006716;28;20533;-76
2022/08/08 03:48:06;;;;;;;6.05;5.30;;;13.80;99.90;;;;;;5029536;28;20038;-76
2022/08/08 03:50:39;;;;;;;8.15;5.60;;;13.80;99.90;;;;;;5025214;28;20036;-76
2022/08/08 03:53:11;;;;;;;8.07;5.40;;;13.70;99.90;;;;;;5006998;28;20115;-76
2022/08/08 03:55:39;;;;;;;6.32;5.03;;;13.70;99.90;;;;;;5009363;28;20041;-76
2022/08/08 03:58:06;;;;;;;7.25;5.40;;;13.70;99.90;;;;;;5027119;28;20609;-76
2022/08/08 04:00:32;;;;;;;8.43;5.90;;;13.70;99.90;;;;;;5032363;28;20826;-76
2022/08/08 04:03:03;;;;;;;9.48;6.10;;;13.70;99.90;;;;;;5014168;28;20457;-76
2022/08/08 04:05:30;;;;;;;7.15;6.38;;;13.70;99.90;;;;;;5000813;28;20124;-77
2022/08/08 04:07:58;;;;;;;9.48;5.97;;;13.70;99.90;;;;;;5015310;28;20568;-77
2022/08/08 04:10:25;;;;;;;6.95;5.30;;;13.60;99.90;;;;;;5011684;28;20494;-76
2022/08/08 04:12:51;;;;;;;7.40;5.50;;;13.60;99.90;;;;;;5011527;28;20041;-76
2022/08/08 04:15:17;;;;;;;5.60;5.00;;;13.60;99.90;;;;;;4999210;28;20111;-76
2022/08/08 04:17:43;;;;;;;7.97;5.30;;;13.60;99.90;;;;;;5029787;28;20151;-76
2022/08/08 04:20:10;;;;;;;10.95;6.28;;;13.50;99.90;;;;;;5019700;28;20501;-76
2022/08/08 04:22:37;;;;;;;7.72;5.60;;;13.60;99.90;;;;;;5015643;28;20482;-76
2022/08/08 04:25:05;;;;;;;7.55;5.72;;;13.50;99.90;;;;;;5006484;28;20034;-76
2022/08/08 04:27:32;;;;;;;7.20;5.75;;;13.50;99.90;;;;;;4995899;28;20087;-76
2022/08/08 04:29:58;;;;;;;8.88;5.35;;;13.50;99.90;;;;;;5002779;28;20033;-76
2022/08/08 04:32:24;;;;;;;7.13;4.90;;;13.50;99.90;;;;;;5005486;28;20422;-77
2022/08/08 04:34:50;;;;;;;8.73;5.57;;;13.50;99.90;;;;;;5013372;28;20104;-77
2022/08/08 04:37:16;;;;;;;7.60;5.88;;;13.50;99.90;;;;;;5009332;28;20053;-76
2022/08/08 04:39:42;;;;;;;7.20;5.30;;;13.50;99.90;;;;;;5031337;28;20045;-77
2022/08/08 04:42:08;;;;;;;8.00;5.25;;;13.50;99.90;;;;;;5030760;28;20049;-75
2022/08/08 04:44:35;;;;;;;8.25;5.72;;;13.60;99.90;;;;;;5031700;28;20066;-77
2022/08/08 04:47:01;;;;;;;6.05;4.90;;;13.50;99.90;;;;;;5010775;28;20426;-75
2022/08/08 04:49:27;;;;;;;8.20;5.30;;;13.50;99.90;;;;;;5010893;28;20037;-75
2022/08/08 04:51:52;;;;;;;7.50;5.22;;;13.60;99.90;;;;;;5031779;28;20061;-76
2022/08/08 04:54:18;;;;;;;6.22;5.57;;;13.60;99.90;;;;;;5011943;28;20061;-76
2022/08/08 04:56:44;;;;;;;8.68;5.90;;;13.60;99.90;;;;;;5027432;28;20393;-76
2022/08/08 04:59:09;;;;;;;10.88;5.38;;;13.60;99.90;;;;;;4994780;28;20077;-76
2022/08/08 05:01:35;;;;;;;8.43;6.38;;;13.60;99.90;;;;;;5027876;28;20041;-76
2022/08/08 05:04:01;;;;;;;10.43;5.78;;;13.60;99.90;;;;;;5009683;28;20048;-76
2022/08/08 05:06:27;;;;;;;5.30;4.72;;;13.60;99.90;;;;;;5023413;28;20113;-76
2022/08/08 05:08:53;;;;;;;6.18;4.95;;;13.60;99.90;;;;;;4992830;28;20398;-76
2022/08/08 05:11:19;;;;;;;6.68;4.80;;;13.60;99.90;;;;;;5025382;28;20084;-85
2022/08/08 05:13:45;;;;;;;6.32;5.43;;;13.60;99.90;;;;;;5015210;28;20053;-83
2022/08/08 05:16:11;;;;;;;7.15;5.35;;;13.70;99.90;;;;;;5012867;28;20045;-83
2022/08/08 05:18:36;;;;;;;7.22;5.68;;;13.70;99.90;;;;;;5022212;28;20410;-84
2022/08/08 05:21:03;;;;;;;5.30;4.70;;;13.70;99.90;;;;;;5022243;28;20045;-84
2022/08/08 05:23:30;;;;;;;6.60;4.93;;;13.70;99.90;;;;;;5017542;28;20517;-83
2022/08/08 05:25:56;;;;;;;6.10;4.90;;;13.80;99.90;;;;;;5023825;28;20540;-83
2022/08/08 05:28:21;;;;;;;5.13;4.63;;;13.80;99.90;;;;;;5015220;28;20049;-76
2022/08/08 05:30:47;;;;;;;7.80;4.68;;;13.80;99.90;;;;;;5005396;28;20041;-76
2022/08/08 05:33:13;;;;;;;6.25;5.20;;;13.90;99.90;;;;;;5022776;28;20061;-76
2022/08/08 05:35:42;;;;;;;6.75;5.28;;;13.90;99.90;;;;;;5006250;28;20037;-75
2022/08/08 05:38:15;;;;;;;5.78;4.45;;;14.00;99.90;;;;;;5039797;28;20124;-77
2022/08/08 05:40:45;;;;;;;5.53;4.78;;;14.00;99.90;;;;;;5043089;28;20440;-77
2022/08/08 05:43:23;;;;;;;7.15;4.72;;;14.10;99.90;;;;;;5011294;28;20058;-76
2022/08/08 05:45:48;;;;;;;7.30;4.68;;;14.10;99.90;;;;;;5041650;28;20056;-76
2022/08/08 05:48:16;;;;;;;11.65;4.30;;;14.20;99.90;;;;;;5023229;28;20030;-76
2022/08/08 05:50:42;;;;;;;6.40;4.32;;;14.20;99.90;;;;;;5023727;28;20168;-75
2022/08/08 05:53:08;;;;;;;5.20;3.97;;;14.30;99.90;;;;;;5028565;28;20538;-75
2022/08/08 05:55:35;;;;;;;5.47;3.67;;;14.40;99.90;;;;;;4993195;28;20052;-83
2022/08/08 05:58:04;;;;;;;6.72;4.10;;;14.50;99.90;;;;;;5031364;28;20037;-84
2022/08/08 06:00:31;;;;;;;8.88;3.85;;;14.50;99.90;;;;;;5023387;28;20099;-82
2022/08/08 06:03:12;;;;;;;6.85;3.60;;;14.60;99.90;;;;;;5003122;28;20042;-83
2022/08/08 06:06:05;;;;;;;4.80;3.60;;;14.70;99.90;;;;;;5042252;28;21986;-82
2022/08/08 06:08:49;;;;;;;6.55;3.60;;;14.80;99.90;;;;;;5026649;28;20493;-83
2022/08/08 06:11:15;;;;;;;6.85;3.70;;;14.90;99.90;;;;;;5025992;28;20042;-82
2022/08/08 06:13:40;;;;;;;6.65;3.33;;;14.90;99.90;;;;;;5031151;28;20053;-83
2022/08/08 06:16:10;;;;;;;6.50;3.83;;;15.00;99.90;;;;;;4995034;28;20131;-82
2022/08/08 06:18:38;;;;;;;7.53;4.15;;;15.10;99.90;;;;;;5023945;28;20049;-82
2022/08/08 06:21:04;;;;;;;6.82;3.70;;;15.20;99.90;;;;;;5010754;28;20052;-82
2022/08/08 06:23:30;;;;;;;5.70;3.63;;;15.30;99.90;;;;;;4990481;28;20046;-82
2022/08/08 06:26:08;;;;;;;7.32;3.72;;;15.40;99.90;;;;;;5030717;28;20041;-82
2022/08/08 06:28:48;;;;;;;6.45;3.30;;;15.60;99.90;;;;;;5026797;28;20093;-82
2022/08/08 06:31:19;;;;;;;6.50;3.72;;;15.70;99.90;;;;;;5024302;28;20041;-82
2022/08/08 06:34:14;;;;;;;6.38;3.15;;;15.80;99.90;;;;;;5027113;28;20077;-83
2022/08/08 06:36:42;;;;;;;7.00;3.20;;;15.90;99.90;;;;;;5047383;28;20064;-82
2022/08/08 06:39:10;;;;;;;8.10;3.45;;;16.00;99.90;;;;;;5029849;28;20188;-82
2022/08/08 06:42:12;;;;;;;7.40;3.45;;;16.10;99.90;;;;;;5044246;28;20053;-82
2022/08/08 06:44:40;;;;;;;6.07;3.75;;;16.20;99.90;;;;;;5006784;28;20057;-82
2022/08/08 06:47:06;;;;;;;9.07;3.38;;;16.50;99.90;;;;;;5023335;28;20045;-82
2022/08/08 06:49:32;;;;;;;13.68;3.00;;;16.70;99.90;;;;;;5028631;28;20068;-83
2022/08/08 06:51:59;;;;;;;7.82;3.00;;;17.10;99.90;;;;;;5033164;28;20049;-83
2022/08/08 06:54:26;;;;;;;6.22;2.50;;;17.50;99.90;;;;;;5009879;28;20103;-82
2022/08/08 06:56:53;;;;;;;7.32;2.40;;;17.90;99.90;;;;;;5010338;28;20166;-82
2022/08/08 06:59:19;;;;;;;5.25;2.10;;;18.40;99.90;;;;;;5013152;28;20527;-82
2022/08/08 07:01:59;;;;;;;4.22;2.00;;;18.90;99.90;;;;;;5034224;28;20072;-82
2022/08/08 07:04:34;;;;;;;4.38;2.30;;;19.50;99.90;;;;;;5034102;28;20044;-82
2022/08/08 07:07:02;;;;;;;4.50;1.90;;;19.90;99.90;;;;;;5050810;28;20065;-82
2022/08/08 07:10:06;;;;;;;8.95;2.70;;;20.30;99.90;;;;;;5056287;28;20400;-82
2022/08/08 07:12:41;;;;;;;7.00;2.20;;;20.40;99.90;;;;;;5050077;28;20057;-82
2022/08/08 07:15:13;;;;;;;11.25;2.10;;;20.60;99.90;;;;;;5046297;28;20077;-82
2022/08/08 07:17:46;;;;;;;5.13;1.80;;;20.70;99.90;;;;;;5030667;28;20049;-82
2022/08/08 07:20:36;;;;;;;4.72;1.77;;;20.90;99.90;;;;;;5011840;28;20045;-82
2022/08/08 07:23:28;;;;;;;5.05;1.80;;;21.00;99.90;;;;;;4994949;28;20053;-82
2022/08/08 07:25:58;;;;;;;5.72;2.10;;;21.10;99.90;;;;;;5032343;28;20041;-82
2022/08/08 07:28:25;;;;;;;5.50;1.90;;;21.00;99.90;;;;;;5024472;28;20390;-82
2022/08/08 07:30:51;;;;;;;4.03;1.50;;;21.10;99.90;;;;;;5019283;28;20037;-83
2022/08/08 07:33:21;;;;;;;4.50;1.92;;;21.10;99.90;;;;;;5030267;28;20048;-83
2022/08/08 07:35:48;;;;;;;7.32;1.90;;;21.10;99.90;;;;;;5033350;28;20056;-83
2022/08/08 07:38:16;;;;;;;5.32;1.73;;;21.00;99.90;;;;;;5028038;28;20042;-83
2022/08/08 07:40:44;;;;;;;13.43;1.88;;;20.70;99.90;;;;;;5028040;28;20060;-83
2022/08/08 07:43:11;;;;;;;2.90;1.60;;;20.60;99.90;;;;;;5013895;28;20231;-83
2022/08/08 07:45:37;;;;;;;4.72;1.70;;;20.60;99.90;;;;;;5025796;28;20038;-84
2022/08/08 07:48:04;;;;;;;4.25;1.60;;;20.70;99.90;;;;;;5031735;28;20037;-84
2022/08/08 07:50:35;;;;;;;7.80;1.73;;;20.70;99.90;;;;;;5031789;28;20116;-83
2022/08/08 07:53:27;;;;;;;6.22;1.67;;;20.80;99.90;;;;;;5014931;28;20132;-84
2022/08/08 07:55:59;;;;;;;8.23;1.60;;;20.90;99.90;;;;;;5025073;28;20382;-83
2022/08/08 07:58:37;;;;;;;4.68;1.77;;;21.20;99.90;;;;;;5016029;28;20085;-83
2022/08/08 08:01:14;;;;;;;4.03;1.40;;;21.40;99.90;;;;;;5017475;28;20037;-84
2022/08/08 08:03:58;;;;;;;5.53;1.50;;;21.70;99.90;;;;;;5029224;28;20082;-84
2022/08/08 08:06:25;;;;;;;4.80;1.30;;;21.90;99.90;;;;;;5031709;28;20046;-83
2022/08/08 08:09:24;;;;;;;3.97;1.52;;;22.00;99.90;;;;;;5033140;28;20024;-84
2022/08/08 08:11:50;;;;;;;4.43;1.42;;;22.10;99.90;;;;;;5019753;28;20080;-84
2022/08/08 08:14:39;;;;;;;3.55;1.50;;;22.20;99.90;;;;;;5027394;28;20115;-83
2022/08/08 08:17:06;;;;;;;5.75;1.50;;;22.30;99.90;;;;;;5004460;28;20049;-83
2022/08/08 08:19:32;;;;;;;3.00;1.30;;;22.20;99.90;;;;;;5031154;28;20680;-83
2022/08/08 08:21:58;;;;;;;33.22;2.78;;;22.00;99.90;;;;;;5048041;28;20095;-84
2022/08/08 08:24:24;;;;;;;2.92;1.20;;;21.90;99.90;;;;;;5015592;28;20073;-84
2022/08/08 08:26:50;;;;;;;7.93;1.80;;;21.80;99.90;;;;;;5000305;28;20049;-83
2022/08/08 08:29:16;;;;;;;3.03;1.50;;;21.50;99.90;;;;;;5015958;28;20044;-83
2022/08/08 08:31:42;;;;;;;5.68;1.42;;;21.20;99.90;;;;;;5033184;28;20042;-83
2022/08/08 08:34:07;;;;;;;4.15;1.40;;;21.10;99.90;;;;;;5007554;28;20096;-85
2022/08/08 08:36:34;;;;;;;4.57;1.77;;;21.00;99.90;;;;;;5013076;28;20183;-90
2022/08/08 08:39:00;;;;;;;4.40;1.25;;;21.00;99.90;;;;;;5013505;28;20045;-83
2022/08/08 08:41:28;;;;;;;3.08;1.33;;;21.00;99.90;;;;;;5013845;28;20137;-76
2022/08/08 08:43:55;;;;;;;3.80;1.25;;;21.00;99.90;;;;;;5018815;28;20414;-76
2022/08/08 08:46:22;;;;;;;4.78;1.50;;;20.90;99.90;;;;;;5011665;28;20044;-77
2022/08/08 08:48:48;;;;;;;4.35;1.30;;;20.60;99.90;;;;;;5029108;28;20041;-77
2022/08/08 08:51:16;;;;;;;6.32;1.65;;;20.50;99.90;;;;;;5015883;28;20508;-76
2022/08/08 08:53:46;;;;;;;4.38;1.45;;;20.40;99.90;;;;;;5012583;28;20037;-77
2022/08/08 08:56:13;;;;;;;2.75;1.33;;;20.30;99.90;;;;;;5028396;28;20041;-76
2022/08/08 08:58:42;;;;;;;3.75;1.40;;;20.10;99.90;;;;;;5047901;28;20124;-77
2022/08/08 09:01:10;;;;;;;3.03;1.30;;;20.00;99.90;;;;;;5032070;28;20053;-76
2022/08/08 09:03:39;;;;;;;4.18;1.17;;;20.00;99.90;;;;;;5031529;28;20113;-76
2022/08/08 09:06:09;;;;;;;2.95;1.27;;;20.10;99.90;;;;;;5030678;28;20041;-77
2022/08/08 09:08:37;;;;;;;4.70;1.25;;;20.10;99.90;;;;;;5022813;28;20045;-77
2022/08/08 09:11:05;;;;;;;7.28;1.30;;;20.30;99.90;;;;;;5028315;28;20107;-77
2022/08/08 09:13:32;;;;;;;6.30;1.65;;;20.40;99.90;;;;;;5045005;28;20065;-77
2022/08/08 09:15:58;;;;;;;4.28;1.20;;;20.60;99.90;;;;;;5005583;28;20095;-77
2022/08/08 09:18:24;;;;;;;3.78;1.50;;;20.80;99.90;;;;;;5050673;28;20044;-77
2022/08/08 09:20:51;;;;;;;3.22;1.20;;;21.00;99.90;;;;;;5005291;28;20055;-77
2022/08/08 09:23:17;;;;;;;7.20;1.58;;;21.20;99.90;;;;;;5014719;28;20041;-76
2022/08/08 09:25:54;;;;;;;3.67;1.23;;;21.30;99.90;;;;;;5015417;28;20037;-77
2022/08/08 09:28:26;;;;;;;2.63;1.30;;;21.40;99.90;;;;;;5013463;28;20095;-77
2022/08/08 09:30:52;;;;;;;6.53;1.50;;;21.60;99.90;;;;;;5031693;28;20388;-77
2022/08/08 09:33:20;;;;;;;2.38;1.30;;;21.80;99.90;;;;;;5016237;28;20401;-77
2022/08/08 09:35:49;;;;;;;3.67;1.15;;;22.00;99.90;;;;;;5015243;28;20442;-77
2022/08/08 09:38:39;;;;;;;4.03;1.20;;;22.10;99.90;;;;;;5032086;28;20073;-77
2022/08/08 09:41:05;;;;;;;4.50;1.10;;;22.10;99.90;;;;;;5029487;28;20049;-77
2022/08/08 09:43:35;;;;;;;3.50;1.10;;;21.80;99.90;;;;;;5018223;28;20490;-77
2022/08/08 09:46:04;;;;;;;6.13;1.50;;;21.60;99.90;;;;;;5035091;28;20034;-77
2022/08/08 09:48:33;;;;;;;2.83;1.25;;;21.40;99.90;;;;;;5031076;28;20524;-77
2022/08/08 09:50:59;;;;;;;2.83;1.33;;;21.40;99.70;;;;;;5013754;28;20553;-77
2022/08/08 09:53:35;;;;;;;5.68;1.67;;;21.20;99.50;;;;;;5030261;28;20037;-76
2022/08/08 09:56:06;;;;;;;3.17;1.15;;;21.10;99.90;;;;;;5034736;28;20045;-76
2022/08/08 09:58:39;;;;;;;2.22;1.15;;;21.10;99.90;;;;;;5014954;28;20132;-76
2022/08/08 10:01:09;;;;;;;3.78;1.35;;;21.00;99.60;;;;;;5031126;28;20095;-77
2022/08/08 10:03:36;;;;;;;3.78;1.35;;;21.10;99.30;;;;;;5014443;28;20124;-76
2022/08/08 10:06:15;;;;;;;3.30;1.05;;;21.00;99.00;;;;;;5018299;28;20485;-82
2022/08/08 10:08:49;;;;;;;3.28;1.10;;;21.00;98.90;;;;;;5020165;28;20088;-82
2022/08/08 10:11:22;;;;;;;2.13;1.05;;;21.10;98.80;;;;;;5047083;28;20037;-83
2022/08/08 10:14:02;;;;;;;3.42;0.90;;;21.10;98.10;;;;;;5020009;28;20041;-84
2022/08/08 10:16:41;;;;;;;3.42;1.13;;;21.20;96.60;;;;;;5043256;28;20038;-83
2022/08/08 10:19:10;;;;;;;6.00;1.00;;;21.20;95.90;;;;;;5026479;28;20038;-82
2022/08/08 10:21:37;;;;;;;1.55;0.80;;;21.40;96.30;;;;;;5016446;28;20502;-83
2022/08/08 10:24:05;;;;;;;2.70;1.00;;;21.40;96.10;;;;;;5030341;28;20053;-84
2022/08/08 10:26:46;;;;;;;2.60;1.08;;;21.50;95.80;;;;;;5028035;28;20033;-83
2022/08/08 10:29:13;;;;;;;1.98;1.02;;;21.60;96.10;;;;;;5017519;28;20567;-83
2022/08/08 10:34:27;;;;;;;21.95;1.63;;;21.70;96.10;;;;;;5034064;28;20457;-77
2022/08/08 10:36:55;;;;;;;18.23;1.65;;;21.70;96.30;;;;;;5017809;28;20129;-77
2022/08/08 10:39:23;;;;;;;4.60;0.98;;;21.70;96.50;;;;;;5044883;28;20053;-77
2022/08/08 10:42:03;;;;;;;3.72;1.05;;;21.70;96.40;;;;;;5037346;28;20147;-77
2022/08/08 10:44:37;;;;;;;1.77;0.90;;;21.80;96.60;;;;;;5034629;28;20430;-77
2022/08/08 10:47:12;;;;;;;5.20;0.98;;;21.80;96.80;;;;;;5050519;28;20041;-77
2022/08/08 10:49:57;;;;;;;3.10;1.15;;;21.60;97.30;;;;;;5016935;28;20087;-77
2022/08/08 10:52:28;;;;;;;2.15;0.95;;;21.60;97.40;;;;;;5015580;28;20100;-77
2022/08/08 10:54:58;;;;;;;2.58;0.90;;;21.60;97.30;;;;;;5033677;28;20080;-77
2022/08/08 10:57:24;;;;;;;4.93;0.90;;;21.60;97.00;;;;;;5045377;28;20037;-77
2022/08/08 10:59:52;;;;;;;3.53;1.10;;;21.70;96.80;;;;;;5011384;28;20072;-76
2022/08/08 11:02:30;;;;;;;1.80;1.00;;;21.80;96.80;;;;;;5032226;28;20033;-76
2022/08/08 11:04:58;;;;;;;2.88;1.10;;;21.80;96.80;;;;;;5017171;28;20037;-75
2022/08/08 11:07:24;;;;;;;2.95;1.10;;;21.80;96.80;;;;;;5017232;28;20566;-76
2022/08/08 11:09:50;;;;;;;2.45;1.10;;;21.70;97.00;;;;;;5035054;28;20077;-76
2022/08/08 11:12:16;;;;;;;3.35;1.02;;;21.70;97.20;;;;;;5031402;28;20072;-76
2022/08/08 11:14:56;;;;;;;4.45;1.10;;;21.80;97.20;;;;;;5016625;28;20037;-76
2022/08/08 11:17:25;;;;;;;4.82;1.33;;;21.90;97.20;;;;;;5019683;28;20397;-75
2022/08/08 11:19:52;;;;;;;2.70;1.13;;;22.00;96.60;;;;;;5032145;28;20042;-76
2022/08/08 11:22:26;;;;;;;2.58;1.02;;;22.10;96.50;;;;;;5002505;28;20128;-76
2022/08/08 11:24:57;;;;;;;4.32;1.20;;;22.10;96.30;;;;;;5029400;28;20115;-76
2022/08/08 11:27:26;;;;;;;4.40;1.02;;;22.30;95.90;;;;;;5033617;28;20041;-76
2022/08/08 11:29:56;;;;;;;2.33;1.00;;;22.30;95.70;;;;;;5033803;28;20037;-76
2022/08/08 11:32:29;;;;;;;6.22;1.05;;;22.50;95.60;;;;;;5017062;28;20132;-76
2022/08/08 11:35:12;;;;;;;19.38;1.70;;;22.50;95.60;;;;;;5033628;28;20033;-76
2022/08/08 11:37:41;;;;;;;5.25;1.00;;;22.60;95.40;;;;;;5000970;28;20044;-76
2022/08/08 11:40:10;;;;;;;2.92;0.90;;;22.60;95.60;;;;;;5017251;28;20385;-83
2022/08/08 11:42:37;;;;;;;2.92;0.90;;;22.70;95.80;;;;;;5034219;28;20490;-83
2022/08/08 11:45:05;;;;;;;7.65;1.40;;;22.60;95.20;;;;;;5001863;28;20076;-83
2022/08/08 11:47:32;;;;;;;2.15;0.70;;;22.60;95.40;;;;;;5018028;28;20038;-83
2022/08/08 11:50:10;;;;;;;3.42;1.13;;;22.50;95.60;;;;;;5017521;28;20112;-76
2022/08/08 11:52:37;;;;;;;1.77;0.88;;;22.50;95.40;;;;;;5033650;28;20108;-76
2022/08/08 11:55:17;;;;;;;2.63;1.20;;;22.40;95.90;;;;;;5033324;28;20049;-76
2022/08/08 11:57:43;;;;;;;2.03;0.88;;;22.40;96.70;;;;;;5000104;28;20103;-76
2022/08/08 12:00:16;;;;;;;9.18;1.38;;;22.50;96.50;;;;;;5000473;28;20374;-76
2022/08/08 12:02:47;;;;;;;2.67;1.20;;;22.60;96.30;;;;;;5000455;28;20038;-76
2022/08/08 12:05:13;;;;;;;2.03;1.02;;;22.60;96.00;;;;;;5032873;28;20045;-76
2022/08/08 12:07:52;;;;;;;2.03;1.02;;;22.50;96.90;;;;;;5016451;28;20037;-76
2022/08/08 12:10:23;;;;;;;2.35;1.15;;;22.60;96.70;;;;;;5032777;28;20116;-76
2022/08/08 12:13:03;;;;;;;4.15;1.08;;;22.60;96.10;;;;;;5016243;28;20493;-76
2022/08/08 12:15:35;;;;;;;2.65;1.00;;;22.50;96.10;;;;;;5032586;28;20049;-77
2022/08/08 12:18:17;;;;;;;9.93;1.30;;;22.40;96.80;;;;;;5033094;28;20124;-76
2022/08/08 12:20:43;;;;;;;3.40;1.13;;;22.60;97.10;;;;;;5016292;28;20045;-77
2022/08/08 12:23:09;;;;;;;6.63;1.45;;;22.70;96.60;;;;;;5016166;28;20052;-76
2022/08/08 12:25:35;;;;;;;1.20;0.93;;;23.00;95.10;;;;;;5016369;28;20041;-77
2022/08/08 12:28:14;;;;;;;4.90;1.00;;;22.90;94.80;;;;;;5015394;28;20478;-77
2022/08/08 12:30:44;;;;;;;2.30;1.20;;;22.80;95.30;;;;;;5015704;28;20044;-76
2022/08/08 12:33:18;;;;;;;6.95;1.73;;;22.90;95.60;;;;;;5016216;28;20056;-76
2022/08/08 12:35:44;;;;;;;5.30;0.98;;;22.90;95.40;;;;;;5015878;28;20041;-76
2022/08/08 12:38:11;;;;;;;3.90;1.13;;;23.10;95.60;;;;;;5015867;28;20041;-76
2022/08/08 12:40:53;;;;;;;2.60;1.08;;;23.20;94.70;;;;;;5032322;28;20049;-76
2022/08/08 12:43:30;;;;;;;6.07;1.20;;;23.30;93.90;;;;;;5032267;28;20592;-76
2022/08/08 12:45:56;;;;;;;2.17;0.93;;;23.40;94.70;;;;;;5032586;28;20041;-76
2022/08/08 12:48:23;;;;;;;9.80;1.65;;;23.50;94.10;;;;;;5016409;28;20037;-77
2022/08/08 12:50:53;;;;;;;12.02;2.20;;;23.50;94.40;;;;;;4983651;28;20068;-76
2022/08/08 12:53:27;;;;;;;1.60;0.95;;;23.60;94.10;;;;;;5015410;28;20477;-76
2022/08/08 12:55:54;;;;;;;2.60;1.00;;;23.70;93.40;;;;;;5032707;28;20046;-75
2022/08/08 12:58:24;;;;;;;3.10;1.00;;;23.70;93.70;;;;;;5015636;28;20037;-76
2022/08/08 13:00:50;;;;;;;2.15;0.90;;;23.80;94.10;;;;;;5022048;28;20037;-83
2022/08/08 13:03:27;;;;;;;5.32;1.00;;;24.20;93.10;;;;;;5033068;28;20100;-83
2022/08/08 13:06:07;;;;;;;4.25;0.90;;;24.30;93.30;;;;;;5032677;28;20045;-83
2022/08/08 13:08:42;;;;;;;4.30;0.90;;;24.40;91.90;;;;;;5033830;28;20466;-83
2022/08/08 13:11:22;;;;;;;4.40;1.40;;;24.40;91.90;;;;;;5018277;28;20045;-83
2022/08/08 13:13:52;;;;;;;5.63;1.13;;;24.40;91.70;;;;;;5034065;28;20370;-83
2022/08/08 13:16:19;;;;;;;28.30;2.08;;;24.40;91.70;;;;;;5032482;28;20041;-77
2022/08/08 13:18:46;;;;;;;34.47;2.67;;;24.40;92.10;;;;;;5015363;28;20513;-77
2022/08/08 13:21:14;;;;;;;3.35;1.00;;;24.30;92.10;;;;;;5015084;28;20037;-77
2022/08/08 13:23:40;;;;;;;3.20;0.95;;;24.40;91.60;;;;;;5015442;28;20128;-76
2022/08/08 13:26:07;;;;;;;3.80;0.95;;;24.40;91.30;;;;;;5031908;28;20461;-77
2022/08/08 13:28:33;;;;;;;6.20;0.98;;;24.30;91.20;;;;;;5015519;28;20482;-77
2022/08/08 13:31:00;;;;;;;2.65;0.90;;;24.30;92.00;;;;;;4999101;28;20068;-77
2022/08/08 13:33:26;;;;;;;2.65;1.02;;;24.30;91.40;;;;;;5031607;28;20041;-76